To NAV CANADA Home Page Login to a new session Search on AWWS site Feedback and Comments Disclaimer Vers la page française équivalente Tips FAQ What's new on the site To the Forecasts and Observations / NOTAM section To "File a Flight Plan" website Publications and other links Update of the User's profile FIC Telephone Numbers My Weather Data Folder Route Weather Data Regional Weather Data Local Weather Data To the Forecasts and Observations / NOTAM section
Request Generated 01/17/2017 at 04:57:12 UTC . Weather information available at that time is displayed.

METAR/TAF

CARTWRIGHT/NL    

METAR CWCA 170400Z 09003KT 10SM -SN SCT020 OVC200 M19/M22 A2987 RMK
SC4CS4 SLP119=
METAR CWCA 170300Z 14004KT 12SM -SN SCT020 OVC200 M19/M22 A2989 RMK
SC4CS4 SLP123=
METAR CWCA 170200Z VRB02KT 15SM -SN SCT020 OVC200 M19/M22 A2990 RMK
SC4CS4 SLP129=

TAF CYCA 170146Z 1702/1714 ADVISORY OFFSITE VRB03KT P6SM -SN SCT020
OVC080 TEMPO 1702/1705 21/2SM -SN OVC020
FM170500 35008KT 11/2SM -SN OVC015 TEMPO 1705/1709 6SM -SN SCT015
OVC025
FM170900 35015KT P6SM SCT015 OVC060 TEMPO 1709/1714 3SM -SN
BKN015 OVC060
BECMG 1709/1711 35015G25KT
RMK NXT FCST BY 170800Z=
Your time UTC time
Weather data provided by Environment Canada and NAV CANADA